Scroll down
FLIGHT INFORMATION
PMDG Flight Operations

PFO707

At Arrival Gate

KLAX
 PHNL
DATE: 2018-07-07
GATE:  -
GATE DEPARTURE: 18:01
TAKEOFF: 18:10
DATE: 2018-07-07
GATE:  -
LANDING: 23:17
GATE ARRIVAL: 23:23
FLIGHT DATA
Crew: 
Speed: 
513 kts
Altitude: 
40,040 ft
Stage Length: 
2,218.2 nm
Block Time: 
5.4 hrs
Flight Time: 
5.1 hrs
Fuel Used: 
100,325 lb
Cleared Route: 
TRACK DATA
50,000 ft 1,000 kts
AIRCRAFT INFO AND CUMULATIVE STATS
Aircraft Type: 
B744F
Registration: 
SELCAL: 
MSN/LN: 
0 / 1
Total Flights: 
3
Total Block Time: 
15.4 hrs
Total Flight Time: 
14.7 hrs
Total Fuel Time: 
284,616 lb
DATALINK LOG | Newest first | Current as of: 2020-12-05 22:53:41
LABEL SEQUENCE CONTENT Dn/Up
QD232523:23 39.8▼ Dn
QC172623:17▼ Dn
GA1237CARGO STAND A▲ Up
GR1027PHNL▼ Dn
2U3258PHNL 072153Z 05015G29KT 10SM FEW026 SCT038 BKN110 29/21 A3003 RMK AO2 PK WND 05031/2124 SLP169 VCSH NW-N T02890211▲ Up
2S3052PHNL▼ Dn
481538TEST MSG FRM OPS. IGNORE.▲ Up
QB103618:10▼ Dn
QA012618:01 140.1▼ Dn
2U5939KLAX 071753Z 27009KT 10SM FEW150 29/19 A2985 RMK AO2 SLP106 T02890194 10300 20233 51007 $▲ Up
2S0588KLAX▼ Dn


AIRCRAFT HISTORY
FLIGHT DATE FLIGHT NO. ORIGIN DESTINATION CLEARED ROUTE BLOCK TIME FLIGHT TIME FUEL USED PILOT
2018-12-11PFO1210KSEA MMMX NEVJO SUMMA4.7 hrs4.4 hrs79,403 lbKyle Weber
2018-11-18PFO1118PHNL KSEA MKK MAGGI TOADS APACK ZOULU ZEMOM ZINNO ZAGER ZANNG SEDAR LATAY AAYRR HAWKZ LIINE PIKEZ COFAY BREVE NETTZ KWEST VASHN5.7 hrs5.2 hrs104,887 lbKyle Weber
2018-07-07PFO707KLAX PHNL 5.4 hrs5.1 hrs100,325 lbKyle Rodgers